Time;durP1;ratioP1;P1;durP2;ratioP2;P2;SDS_P1;SDS_P2;PMS_P1;PMS_P2;Temp;Humidity;BMP_temperature;BMP_pressure;BME280_temperature;BME280_humidity;BME280_pressure;Samples;Min_cycle;Max_cycle;Signal;HPM_P1;HPM_P2
2024/02/13 00:01:28;;;;;;;22.83;7.18;;;;;;;;;;5002284;28;20484;-70
2024/02/13 00:03:54;;;;;;;13.60;6.20;;;;;;;;;;4999278;28;20098;-70
2024/02/13 00:06:19;;;;;;;16.67;7.15;;;;;;;;;;4993166;28;20019;-69
2024/02/13 00:08:46;;;;;;;23.23;7.03;;;;;;;;;;4999935;28;20365;-69
2024/02/13 00:11:13;;;;;;;21.02;7.20;;;;;;;;;;4995114;28;20143;-70
2024/02/13 00:13:38;;;;;;;14.00;6.03;;;;;;;;;;5003674;28;20531;-70
2024/02/13 00:16:03;;;;;;;17.50;8.00;;;;;;;;;;5002690;28;20109;-70
2024/02/13 00:18:29;;;;;;;23.08;7.10;;;;;;;;;;4991608;28;20264;-70
2024/02/13 00:20:56;;;;;;;17.33;7.53;;;;;;;;;;4994287;28;20473;-70
2024/02/13 00:23:21;;;;;;;25.08;7.28;;;;;;;;;;4997135;28;20484;-70
2024/02/13 00:25:47;;;;;;;19.67;6.53;;;;;;;;;;4999475;28;20045;-70
2024/02/13 00:28:12;;;;;;;17.67;6.88;;;;;;;;;;4998144;28;20280;-70
2024/02/13 00:30:40;;;;;;;20.02;6.80;;;;;;;;;;4997871;28;20030;-70
2024/02/13 00:33:05;;;;;;;17.15;6.60;;;;;;;;;;4995804;28;20112;-69
2024/02/13 00:35:30;;;;;;;19.20;7.25;;;;;;;;;;4994223;28;20117;-70
2024/02/13 00:37:55;;;;;;;15.53;7.10;;;;;;;;;;4996946;28;20080;-70
2024/02/13 00:40:21;;;;;;;22.37;7.43;;;;;;;;;;4994411;28;20744;-70
2024/02/13 00:42:49;;;;;;;16.10;6.32;;;;;;;;;;4996720;28;20276;-70
2024/02/13 00:45:14;;;;;;;17.85;6.55;;;;;;;;;;5000329;28;20388;-70
2024/02/13 00:47:40;;;;;;;16.37;6.77;;;;;;;;;;4991824;28;20026;-70
2024/02/13 00:50:06;;;;;;;16.20;6.47;;;;;;;;;;4994022;28;20272;-70
2024/02/13 00:52:31;;;;;;;30.83;7.93;;;;;;;;;;4994775;28;20434;-70
2024/02/13 00:54:57;;;;;;;16.83;7.50;;;;;;;;;;4995707;28;20021;-70
2024/02/13 00:57:22;;;;;;;20.67;7.80;;;;;;;;;;4996935;28;20061;-70
2024/02/13 00:59:48;;;;;;;16.20;7.10;;;;;;;;;;4993040;28;20469;-70
2024/02/13 01:02:17;;;;;;;16.95;6.97;;;;;;;;;;4999934;28;20364;-69
2024/02/13 01:04:42;;;;;;;24.13;7.63;;;;;;;;;;4992127;28;20201;-70
2024/02/13 01:07:08;;;;;;;15.40;7.00;;;;;;;;;;4992540;28;20109;-69
2024/02/13 01:09:33;;;;;;;17.27;7.35;;;;;;;;;;4992768;28;20285;-70
2024/02/13 01:11:58;;;;;;;22.80;7.03;;;;;;;;;;4995517;28;20485;-70
2024/02/13 01:14:23;;;;;;;15.17;7.20;;;;;;;;;;4995696;28;20268;-69
2024/02/13 01:16:48;;;;;;;17.13;7.07;;;;;;;;;;4995047;28;20961;-70
2024/02/13 01:19:13;;;;;;;20.83;6.97;;;;;;;;;;4995895;28;20287;-70
2024/02/13 01:21:39;;;;;;;19.20;7.13;;;;;;;;;;4998287;28;20812;-69
2024/02/13 01:24:04;;;;;;;21.25;7.57;;;;;;;;;;4998608;28;20264;-70
2024/02/13 01:26:29;;;;;;;18.60;7.60;;;;;;;;;;4991895;28;20107;-70
2024/02/13 01:28:54;;;;;;;25.73;7.97;;;;;;;;;;4993864;28;20049;-70
2024/02/13 01:31:20;;;;;;;19.25;6.60;;;;;;;;;;4995270;28;20019;-70
2024/02/13 01:33:45;;;;;;;17.77;8.73;;;;;;;;;;5000823;28;20026;-69
2024/02/13 01:36:10;;;;;;;17.40;8.07;;;;;;;;;;5002216;28;20355;-70
2024/02/13 01:38:36;;;;;;;20.23;7.70;;;;;;;;;;4995254;28;20037;-70
2024/02/13 01:41:02;;;;;;;25.08;8.27;;;;;;;;;;4998448;28;20048;-70
2024/02/13 01:43:29;;;;;;;22.65;7.63;;;;;;;;;;4996799;28;20022;-70
2024/02/13 01:45:55;;;;;;;16.23;8.13;;;;;;;;;;4999507;28;20045;-69
2024/02/13 01:48:21;;;;;;;29.85;7.85;;;;;;;;;;4994683;28;20105;-70
2024/02/13 01:50:47;;;;;;;24.33;7.97;;;;;;;;;;4995908;28;20453;-70
2024/02/13 01:53:12;;;;;;;22.10;8.52;;;;;;;;;;5007028;28;20017;-70
2024/02/13 01:55:39;;;;;;;17.20;7.30;;;;;;;;;;4997453;28;20027;-70
2024/02/13 01:58:05;;;;;;;24.63;8.77;;;;;;;;;;4998429;28;20021;-70
2024/02/13 02:00:34;;;;;;;21.67;8.68;;;;;;;;;;4993485;28;20242;-70
2024/02/13 02:02:59;;;;;;;19.33;8.20;;;;;;;;;;4998931;28;20068;-70
2024/02/13 02:05:25;;;;;;;19.10;8.55;;;;;;;;;;4995834;28;20477;-70
2024/02/13 02:07:50;;;;;;;16.23;7.28;;;;;;;;;;5000800;28;20216;-69
2024/02/13 02:10:15;;;;;;;18.98;7.60;;;;;;;;;;4998781;28;20026;-70
2024/02/13 02:12:41;;;;;;;23.95;8.25;;;;;;;;;;4997930;28;20377;-69
2024/02/13 02:15:06;;;;;;;27.83;8.60;;;;;;;;;;4998262;28;20357;-70
2024/02/13 02:17:32;;;;;;;26.52;8.35;;;;;;;;;;4991832;28;20030;-69
2024/02/13 02:19:57;;;;;;;20.77;7.82;;;;;;;;;;5001855;28;20033;-69
2024/02/13 02:22:22;;;;;;;19.67;8.32;;;;;;;;;;5001110;28;20124;-70
2024/02/13 02:24:47;;;;;;;18.88;8.43;;;;;;;;;;5003155;28;20029;-70
2024/02/13 02:27:13;;;;;;;23.13;8.33;;;;;;;;;;5002508;28;20073;-70
2024/02/13 02:29:38;;;;;;;23.48;9.38;;;;;;;;;;5006033;28;20291;-70
2024/02/13 02:32:04;;;;;;;27.05;8.98;;;;;;;;;;4994960;28;20026;-70
2024/02/13 02:34:29;;;;;;;19.00;8.50;;;;;;;;;;4993517;28;20061;-70
2024/02/13 02:36:54;;;;;;;22.60;9.47;;;;;;;;;;4998849;28;20373;-70
2024/02/13 02:39:19;;;;;;;21.02;8.80;;;;;;;;;;4994415;28;20336;-70
2024/02/13 02:41:46;;;;;;;25.05;9.18;;;;;;;;;;5001668;28;20028;-70
2024/02/13 02:44:11;;;;;;;31.83;9.20;;;;;;;;;;5005939;28;20030;-70
2024/02/13 02:46:36;;;;;;;17.20;8.63;;;;;;;;;;5000300;28;20023;-70
2024/02/13 02:49:02;;;;;;;26.48;9.25;;;;;;;;;;5000673;28;20018;-70
2024/02/13 02:51:27;;;;;;;23.08;8.82;;;;;;;;;;4998583;28;20032;-70
2024/02/13 02:53:52;;;;;;;22.10;9.75;;;;;;;;;;5000445;28;20015;-70
2024/02/13 02:56:18;;;;;;;22.35;9.43;;;;;;;;;;5002165;28;20025;-70
2024/02/13 02:58:43;;;;;;;19.07;9.17;;;;;;;;;;5005481;28;20442;-70
2024/02/13 03:01:08;;;;;;;18.95;9.35;;;;;;;;;;5000245;28;20344;-70
2024/02/13 03:03:33;;;;;;;23.92;9.10;;;;;;;;;;5000627;28;20052;-70
2024/02/13 03:05:59;;;;;;;19.50;9.15;;;;;;;;;;5002849;28;20069;-70
2024/02/13 03:08:24;;;;;;;26.40;9.45;;;;;;;;;;5000438;28;20052;-70
2024/02/13 03:10:50;;;;;;;18.67;9.27;;;;;;;;;;5002722;28;20084;-70
2024/02/13 03:13:15;;;;;;;21.60;9.43;;;;;;;;;;5002950;28;20021;-70
2024/02/13 03:15:40;;;;;;;21.33;8.93;;;;;;;;;;5005287;28;20716;-70
2024/02/13 03:18:06;;;;;;;23.23;9.15;;;;;;;;;;4998659;28;20413;-70
2024/02/13 03:20:32;;;;;;;28.27;9.90;;;;;;;;;;4997441;28;20022;-70
2024/02/13 03:22:58;;;;;;;31.23;9.80;;;;;;;;;;5012207;28;20034;-70
2024/02/13 03:25:23;;;;;;;31.48;10.90;;;;;;;;;;5000176;28;20026;-70
2024/02/13 03:27:48;;;;;;;24.50;9.80;;;;;;;;;;5001324;28;20031;-70
2024/02/13 03:30:14;;;;;;;31.67;11.87;;;;;;;;;;4997373;28;20018;-70
2024/02/13 03:32:39;;;;;;;27.33;9.82;;;;;;;;;;5005333;28;20333;-70
2024/02/13 03:35:05;;;;;;;28.75;9.23;;;;;;;;;;5002066;28;20477;-70
2024/02/13 03:37:30;;;;;;;25.63;10.75;;;;;;;;;;4999718;28;20493;-70
2024/02/13 03:39:55;;;;;;;37.33;9.57;;;;;;;;;;5002934;28;20380;-70
2024/02/13 03:42:21;;;;;;;24.77;9.10;;;;;;;;;;4999662;28;20085;-70
2024/02/13 03:44:46;;;;;;;21.23;8.57;;;;;;;;;;5001734;28;20073;-70
2024/02/13 03:47:11;;;;;;;21.00;9.35;;;;;;;;;;5003288;28;20117;-70
2024/02/13 03:49:36;;;;;;;25.73;9.75;;;;;;;;;;5001315;28;20022;-70
2024/02/13 03:52:02;;;;;;;31.75;9.95;;;;;;;;;;5002273;28;20405;-70
2024/02/13 03:54:27;;;;;;;21.42;8.75;;;;;;;;;;4999733;28;20034;-70
2024/02/13 03:56:52;;;;;;;27.27;9.52;;;;;;;;;;4996409;28;20515;-70
2024/02/13 03:59:17;;;;;;;19.73;8.73;;;;;;;;;;4999103;28;20027;-70
2024/02/13 04:01:43;;;;;;;20.33;9.60;;;;;;;;;;4997851;28;20100;-70
2024/02/13 04:04:09;;;;;;;27.70;9.80;;;;;;;;;;5004796;28;20029;-70
2024/02/13 04:06:35;;;;;;;26.25;9.50;;;;;;;;;;5002875;28;20050;-70
2024/02/13 04:09:02;;;;;;;26.20;8.90;;;;;;;;;;4999977;28;20014;-70
2024/02/13 04:11:27;;;;;;;22.90;10.65;;;;;;;;;;4999560;28;20035;-70
2024/02/13 04:13:54;;;;;;;24.65;9.75;;;;;;;;;;4999501;28;20552;-70
2024/02/13 04:16:19;;;;;;;26.38;9.73;;;;;;;;;;4999234;28;20029;-70
2024/02/13 04:18:44;;;;;;;23.13;10.63;;;;;;;;;;5005597;28;20022;-70
2024/02/13 04:21:15;;;;;;;27.27;10.30;;;;;;;;;;4999128;28;20049;-70
2024/02/13 04:23:40;;;;;;;29.70;10.23;;;;;;;;;;4996467;28;20026;-70
2024/02/13 04:26:05;;;;;;;22.40;9.23;;;;;;;;;;4999219;28;20022;-70
2024/02/13 04:28:30;;;;;;;18.70;8.43;;;;;;;;;;4992805;28;20349;-70
2024/02/13 04:30:56;;;;;;;23.45;8.88;;;;;;;;;;5004172;28;20076;-70
2024/02/13 04:33:21;;;;;;;20.40;9.15;;;;;;;;;;5005452;28;20034;-70
2024/02/13 04:35:47;;;;;;;19.35;8.18;;;;;;;;;;4995270;28;20034;-70
2024/02/13 04:38:12;;;;;;;26.33;8.77;;;;;;;;;;4995612;28;20054;-70
2024/02/13 04:40:37;;;;;;;18.10;8.95;;;;;;;;;;4994509;28;20064;-70
2024/02/13 04:43:04;;;;;;;26.40;8.60;;;;;;;;;;4998072;28;20033;-70
2024/02/13 04:45:29;;;;;;;20.52;8.38;;;;;;;;;;4994774;28;20068;-70
2024/02/13 04:47:56;;;;;;;20.07;8.50;;;;;;;;;;4998596;28;20022;-70
2024/02/13 04:50:23;;;;;;;29.23;10.02;;;;;;;;;;4996829;28;20289;-70
2024/02/13 04:52:48;;;;;;;23.48;9.85;;;;;;;;;;5000651;28;20504;-70
2024/02/13 04:55:13;;;;;;;19.80;8.57;;;;;;;;;;4989356;28;20038;-70
2024/02/13 04:57:39;;;;;;;22.95;8.13;;;;;;;;;;4994401;28;20485;-70
2024/02/13 05:00:14;;;;;;;27.08;9.73;;;;;;;;;;4997580;28;20065;-70
2024/02/13 05:02:42;;;;;;;21.23;9.43;;;;;;;;;;4997243;28;20033;-70
2024/02/13 05:07:51;;;;;;;17.80;7.22;;;;;;;;;;5000525;28;20037;-70
2024/02/13 05:10:16;;;;;;;18.40;6.32;;;;;;;;;;4992083;28;20023;-70
2024/02/13 05:12:43;;;;;;;15.45;7.65;;;;;;;;;;4998604;28;20042;-70
2024/02/13 05:15:08;;;;;;;8.65;3.58;;;;;;;;;;4992077;28;20032;-70
2024/02/13 05:17:35;;;;;;;23.27;8.52;;;;;;;;;;4997596;28;20364;-70
2024/02/13 05:20:00;;;;;;;12.40;5.28;;;;;;;;;;4998810;28;20022;-70
2024/02/13 05:22:26;;;;;;;21.30;7.68;;;;;;;;;;4994454;28;20571;-70
2024/02/13 05:24:51;;;;;;;26.10;8.35;;;;;;;;;;4996773;28;20027;-70
2024/02/13 05:27:16;;;;;;;22.83;8.38;;;;;;;;;;4997505;28;20014;-70
2024/02/13 05:29:41;;;;;;;19.60;8.57;;;;;;;;;;4999814;28;20018;-70
2024/02/13 05:32:07;;;;;;;25.67;8.57;;;;;;;;;;4997445;28;20010;-70
2024/02/13 05:34:32;;;;;;;18.17;7.88;;;;;;;;;;4998590;28;20085;-70
2024/02/13 05:36:58;;;;;;;12.30;6.72;;;;;;;;;;4999249;28;20507;-70
2024/02/13 05:39:24;;;;;;;19.23;5.82;;;;;;;;;;4997334;28;20381;-70
2024/02/13 05:41:50;;;;;;;9.48;3.40;;;;;;;;;;4999053;28;20034;-70
2024/02/13 05:44:16;;;;;;;12.60;4.07;;;;;;;;;;4999308;28;20096;-70
2024/02/13 05:46:42;;;;;;;20.17;8.27;;;;;;;;;;4994707;28;20019;-70
2024/02/13 05:49:07;;;;;;;15.60;6.95;;;;;;;;;;5008419;28;20076;-70
2024/02/13 05:51:32;;;;;;;6.15;2.92;;;;;;;;;;4997866;28;20102;-70
2024/02/13 05:53:57;;;;;;;18.20;6.93;;;;;;;;;;4994907;28;20022;-70
2024/02/13 05:56:23;;;;;;;12.35;5.78;;;;;;;;;;4998337;28;20033;-69
2024/02/13 05:58:48;;;;;;;14.75;4.93;;;;;;;;;;4997509;28;20101;-70
2024/02/13 06:01:13;;;;;;;12.70;6.23;;;;;;;;;;4994145;28;20080;-70
2024/02/13 06:03:39;;;;;;;5.65;2.95;;;;;;;;;;4992140;28;20307;-70
2024/02/13 06:06:05;;;;;;;13.02;7.00;;;;;;;;;;5004754;28;20034;-70
2024/02/13 06:08:30;;;;;;;5.75;3.45;;;;;;;;;;5000185;28;20424;-70
2024/02/13 06:10:57;;;;;;;10.30;4.00;;;;;;;;;;4999726;28;20082;-70
2024/02/13 06:13:23;;;;;;;1.63;0.85;;;;;;;;;;4999846;28;20023;-70
2024/02/13 06:15:48;;;;;;;6.32;3.42;;;;;;;;;;4996101;28;20042;-70
2024/02/13 06:18:14;;;;;;;5.53;2.78;;;;;;;;;;4998227;28;20054;-70
2024/02/13 06:20:39;;;;;;;12.60;5.57;;;;;;;;;;4996963;28;20034;-70
2024/02/13 06:23:04;;;;;;;22.15;4.10;;;;;;;;;;4994704;28;20034;-70
2024/02/13 06:25:30;;;;;;;8.30;4.88;;;;;;;;;;4991948;28;20032;-69
2024/02/13 06:27:55;;;;;;;8.20;4.60;;;;;;;;;;4990827;28;20115;-70
2024/02/13 06:30:20;;;;;;;8.40;2.47;;;;;;;;;;4996143;28;20058;-70
2024/02/13 06:32:45;;;;;;;8.47;3.13;;;;;;;;;;4997059;28;20285;-70
2024/02/13 06:35:11;;;;;;;11.00;3.78;;;;;;;;;;4997920;28;20283;-70
2024/02/13 06:37:39;;;;;;;14.00;5.22;;;;;;;;;;4987360;28;20420;-70
2024/02/13 06:40:05;;;;;;;11.52;5.57;;;;;;;;;;4995557;28;20023;-70
2024/02/13 06:42:31;;;;;;;5.13;1.92;;;;;;;;;;4990607;28;20620;-69
2024/02/13 06:44:56;;;;;;;14.30;4.25;;;;;;;;;;4993207;28;20880;-70
2024/02/13 06:47:25;;;;;;;8.43;3.63;;;;;;;;;;4996102;28;20015;-70
2024/02/13 06:49:51;;;;;;;3.97;2.20;;;;;;;;;;4993139;28;20519;-70
2024/02/13 06:52:16;;;;;;;18.85;4.45;;;;;;;;;;4991451;28;20018;-69
2024/02/13 06:54:41;;;;;;;13.52;3.15;;;;;;;;;;4993968;28;20026;-70
2024/02/13 06:57:07;;;;;;;4.97;3.35;;;;;;;;;;4997876;28;20029;-70
2024/02/13 06:59:32;;;;;;;6.67;2.53;;;;;;;;;;4996439;28;20037;-70
2024/02/13 07:01:57;;;;;;;10.93;4.68;;;;;;;;;;4999511;28;20390;-70
2024/02/13 07:04:22;;;;;;;15.45;5.88;;;;;;;;;;4992045;28;20019;-70
2024/02/13 07:06:47;;;;;;;11.63;5.22;;;;;;;;;;4991933;28;20033;-70
2024/02/13 07:09:13;;;;;;;16.02;5.43;;;;;;;;;;4990894;28;20120;-70
2024/02/13 07:11:38;;;;;;;12.07;5.40;;;;;;;;;;4990592;28;20014;-70
2024/02/13 07:14:03;;;;;;;13.88;6.18;;;;;;;;;;4990948;28;20014;-70
2024/02/13 07:16:28;;;;;;;17.02;3.60;;;;;;;;;;4992993;28;20023;-70
2024/02/13 07:18:54;;;;;;;9.97;3.80;;;;;;;;;;4995142;28;20049;-70
2024/02/13 07:21:19;;;;;;;2.28;1.20;;;;;;;;;;4992349;28;20364;-70
2024/02/13 07:23:45;;;;;;;16.48;6.18;;;;;;;;;;4989535;28;20030;-70
2024/02/13 07:26:11;;;;;;;16.23;4.65;;;;;;;;;;4998543;28;20109;-70
2024/02/13 07:28:36;;;;;;;10.60;3.42;;;;;;;;;;5002910;28;20106;-70
2024/02/13 07:31:03;;;;;;;7.75;4.18;;;;;;;;;;5004311;28;20022;-70
2024/02/13 07:33:28;;;;;;;12.43;2.85;;;;;;;;;;4997995;28;20029;-70
2024/02/13 07:35:53;;;;;;;14.93;5.93;;;;;;;;;;5004373;28;20017;-70
2024/02/13 07:38:19;;;;;;;10.13;5.20;;;;;;;;;;4998354;28;20376;-70
2024/02/13 07:40:44;;;;;;;5.77;2.77;;;;;;;;;;4998572;28;20631;-70
2024/02/13 07:43:12;;;;;;;13.15;4.63;;;;;;;;;;4999696;28;20648;-70
2024/02/13 07:45:37;;;;;;;9.32;5.47;;;;;;;;;;5001243;28;20097;-70
2024/02/13 07:48:04;;;;;;;20.38;6.55;;;;;;;;;;5002280;28;20618;-70
2024/02/13 07:50:29;;;;;;;6.57;2.58;;;;;;;;;;4988894;28;20113;-70
2024/02/13 07:52:55;;;;;;;3.87;1.93;;;;;;;;;;5000626;28;20094;-70
2024/02/13 07:55:20;;;;;;;9.27;5.03;;;;;;;;;;5010439;28;20265;-70
2024/02/13 07:57:50;;;;;;;4.88;2.33;;;;;;;;;;4997972;28;20030;-70
2024/02/13 08:00:15;;;;;;;9.70;4.22;;;;;;;;;;5002931;28;20084;-70
2024/02/13 08:02:40;;;;;;;11.50;4.53;;;;;;;;;;4999905;28;20445;-70
2024/02/13 08:05:06;;;;;;;9.57;5.10;;;;;;;;;;4995918;28;20473;-70
2024/02/13 08:07:31;;;;;;;8.55;4.13;;;;;;;;;;4998833;28;20105;-70
2024/02/13 08:09:56;;;;;;;7.53;2.75;;;;;;;;;;4995463;28;20057;-70
2024/02/13 08:12:21;;;;;;;7.65;3.05;;;;;;;;;;4998610;28;20050;-70
2024/02/13 08:14:46;;;;;;;3.15;1.73;;;;;;;;;;4995478;28;20038;-70
2024/02/13 08:17:12;;;;;;;5.07;2.83;;;;;;;;;;4998063;28;20112;-70
2024/02/13 08:19:40;;;;;;;4.55;2.75;;;;;;;;;;5010286;28;20049;-70
2024/02/13 08:22:05;;;;;;;10.55;3.53;;;;;;;;;;5003946;28;20025;-70
2024/02/13 08:24:30;;;;;;;9.13;3.70;;;;;;;;;;4999031;28;20452;-70
2024/02/13 08:26:56;;;;;;;6.72;2.90;;;;;;;;;;5000308;28;20093;-70
2024/02/13 08:29:21;;;;;;;8.67;2.83;;;;;;;;;;5002442;28;20030;-70
2024/02/13 08:31:49;;;;;;;10.85;3.40;;;;;;;;;;5001319;28;20284;-69
2024/02/13 08:34:14;;;;;;;10.98;3.03;;;;;;;;;;5000534;28;20103;-70
2024/02/13 08:36:39;;;;;;;9.50;4.93;;;;;;;;;;5001966;28;20111;-70
2024/02/13 08:39:05;;;;;;;10.25;4.22;;;;;;;;;;5002797;28;20461;-70
2024/02/13 08:41:31;;;;;;;10.90;3.80;;;;;;;;;;5000666;28;20117;-70
2024/02/13 08:43:57;;;;;;;7.88;1.50;;;;;;;;;;4997900;28;20029;-70
2024/02/13 08:46:23;;;;;;;11.18;2.40;;;;;;;;;;5002339;28;20026;-70
2024/02/13 08:48:49;;;;;;;13.85;3.80;;;;;;;;;;5007061;28;20276;-70
2024/02/13 08:51:14;;;;;;;11.97;3.27;;;;;;;;;;5002669;28;20105;-70
2024/02/13 08:53:39;;;;;;;7.50;3.55;;;;;;;;;;4998921;28;20369;-70
2024/02/13 08:56:05;;;;;;;10.68;3.75;;;;;;;;;;5003906;28;20365;-70
2024/02/13 08:58:30;;;;;;;6.50;3.53;;;;;;;;;;4996669;28;20017;-70
2024/02/13 09:00:55;;;;;;;5.27;2.63;;;;;;;;;;5007349;28;20033;-70
2024/02/13 09:03:20;;;;;;;5.82;2.83;;;;;;;;;;5001494;28;20299;-70
2024/02/13 09:05:45;;;;;;;9.53;2.73;;;;;;;;;;5002549;28;20181;-71
2024/02/13 09:08:11;;;;;;;9.90;2.40;;;;;;;;;;4998015;28;20258;-70
2024/02/13 09:10:36;;;;;;;6.88;2.70;;;;;;;;;;5001460;28;20249;-70
2024/02/13 09:13:01;;;;;;;2.57;2.10;;;;;;;;;;5001734;28;20025;-70
2024/02/13 09:15:29;;;;;;;7.88;2.70;;;;;;;;;;4999982;28;20341;-70
2024/02/13 09:17:54;;;;;;;4.20;1.40;;;;;;;;;;5006603;28;20019;-70
2024/02/13 09:20:21;;;;;;;2.88;1.45;;;;;;;;;;5000311;28;20025;-70
2024/02/13 09:22:47;;;;;;;6.20;2.70;;;;;;;;;;5001720;28;20041;-70
2024/02/13 09:25:12;;;;;;;8.10;2.05;;;;;;;;;;5000138;28;20481;-70
2024/02/13 09:27:38;;;;;;;5.57;2.53;;;;;;;;;;4998967;28;20022;-70
2024/02/13 09:30:04;;;;;;;2.20;1.50;;;;;;;;;;4997654;28;20412;-70
2024/02/13 09:32:31;;;;;;;4.50;2.60;;;;;;;;;;4997838;28;20030;-70
2024/02/13 09:34:57;;;;;;;9.63;2.22;;;;;;;;;;4997870;28;20024;-70
2024/02/13 09:37:22;;;;;;;11.20;2.10;;;;;;;;;;4995881;28;20018;-69
2024/02/13 09:39:48;;;;;;;2.77;1.70;;;;;;;;;;4997931;28;20057;-70
2024/02/13 09:42:16;;;;;;;2.58;0.95;;;;;;;;;;5002167;28;20256;-70
2024/02/13 09:44:42;;;;;;;2.55;0.80;;;;;;;;;;5001791;28;20081;-69
2024/02/13 09:47:09;;;;;;;5.72;1.58;;;;;;;;;;5003145;28;20021;-69
2024/02/13 09:49:35;;;;;;;3.75;0.90;;;;;;;;;;4999433;28;20072;-70
2024/02/13 09:52:02;;;;;;;5.85;1.80;;;;;;;;;;4999269;28;20026;-70
2024/02/13 09:54:29;;;;;;;3.38;1.42;;;;;;;;;;4993476;28;20469;-70
2024/02/13 09:56:55;;;;;;;2.40;0.85;;;;;;;;;;5002739;28;20021;-70
2024/02/13 09:59:21;;;;;;;6.13;1.70;;;;;;;;;;5001407;28;20029;-70
2024/02/13 10:01:46;;;;;;;11.45;2.20;;;;;;;;;;4997315;28;20107;-69
2024/02/13 10:04:12;;;;;;;1.40;0.63;;;;;;;;;;5001033;28;20161;-70
2024/02/13 10:06:38;;;;;;;2.70;0.73;;;;;;;;;;4998745;28;20046;-70
2024/02/13 10:09:05;;;;;;;1.67;0.77;;;;;;;;;;5000475;28;20029;-70
2024/02/13 10:11:31;;;;;;;7.57;1.05;;;;;;;;;;4998565;28;20018;-70
2024/02/13 10:13:56;;;;;;;4.20;0.90;;;;;;;;;;5003514;28;20030;-70
2024/02/13 10:16:28;;;;;;;4.53;0.73;;;;;;;;;;5001222;28;20108;-70
2024/02/13 10:18:54;;;;;;;1.25;0.70;;;;;;;;;;5001612;28;20332;-70
2024/02/13 10:21:22;;;;;;;13.27;2.15;;;;;;;;;;4995818;28;20456;-70
2024/02/13 10:23:48;;;;;;;4.65;0.70;;;;;;;;;;5000112;28;20022;-70
2024/02/13 10:26:15;;;;;;;3.35;0.57;;;;;;;;;;4991925;28;20084;-70
2024/02/13 10:28:44;;;;;;;6.72;1.58;;;;;;;;;;4996193;28;20385;-70
2024/02/13 10:31:09;;;;;;;20.80;1.63;;;;;;;;;;5002495;28;20105;-70
2024/02/13 10:33:41;;;;;;;5.25;0.90;;;;;;;;;;4996565;28;20521;-70
2024/02/13 10:36:06;;;;;;;2.95;1.05;;;;;;;;;;4993055;28;20076;-69
2024/02/13 10:38:33;;;;;;;5.13;1.60;;;;;;;;;;4999073;28;20030;-70
2024/02/13 10:40:59;;;;;;;6.05;1.67;;;;;;;;;;5002055;28;20018;-70
2024/02/13 10:43:25;;;;;;;5.45;0.88;;;;;;;;;;4996804;28;20053;-70
2024/02/13 10:45:52;;;;;;;6.65;1.30;;;;;;;;;;4997186;28;20188;-70
2024/02/13 10:48:33;;;;;;;8.77;1.27;;;;;;;;;;4993982;28;20052;-70
2024/02/13 10:50:58;;;;;;;5.40;1.42;;;;;;;;;;4993442;28;20072;-70
2024/02/13 10:53:25;;;;;;;8.05;1.90;;;;;;;;;;5000699;28;20430;-70
2024/02/13 10:55:55;;;;;;;5.35;1.25;;;;;;;;;;4999505;28;20105;-70
2024/02/13 10:58:29;;;;;;;1.83;0.70;;;;;;;;;;4991868;28;20129;-70
2024/02/13 11:00:55;;;;;;;4.53;1.25;;;;;;;;;;4994459;28;20057;-70
2024/02/13 11:03:20;;;;;;;2.08;0.90;;;;;;;;;;4994923;28;20062;-70
2024/02/13 11:05:45;;;;;;;3.63;0.73;;;;;;;;;;4995987;28;20029;-70
2024/02/13 11:08:13;;;;;;;8.88;0.90;;;;;;;;;;4995826;28;20084;-70
2024/02/13 11:10:41;;;;;;;3.15;0.90;;;;;;;;;;5001848;28;20018;-70
2024/02/13 11:13:09;;;;;;;4.80;0.95;;;;;;;;;;5003905;28;20014;-70
2024/02/13 11:15:37;;;;;;;0.73;0.40;;;;;;;;;;4999423;28;20092;-70
2024/02/13 11:18:05;;;;;;;9.68;0.90;;;;;;;;;;5002826;28;20061;-70
2024/02/13 11:20:30;;;;;;;8.85;1.98;;;;;;;;;;4997030;28;20030;-70
2024/02/13 11:22:56;;;;;;;4.53;0.95;;;;;;;;;;5007353;28;20061;-70
2024/02/13 11:25:26;;;;;;;3.80;1.20;;;;;;;;;;4998058;28;20035;-69
2024/02/13 11:27:55;;;;;;;1.33;0.80;;;;;;;;;;5003202;28;20033;-70
2024/02/13 11:30:21;;;;;;;0.47;0.30;;;;;;;;;;4997126;28;20026;-70
2024/02/13 11:32:46;;;;;;;1.48;0.70;;;;;;;;;;5011103;28;20197;-70
2024/02/13 11:35:15;;;;;;;1.88;0.55;;;;;;;;;;5003674;28;20034;-70
2024/02/13 11:37:41;;;;;;;4.70;0.88;;;;;;;;;;5002111;28;20050;-70
2024/02/13 11:40:07;;;;;;;5.18;1.20;;;;;;;;;;5000918;28;20452;-70
2024/02/13 11:42:33;;;;;;;3.55;1.55;;;;;;;;;;4993611;28;20497;-70
2024/02/13 11:45:00;;;;;;;8.95;1.10;;;;;;;;;;4999598;28;20049;-68
2024/02/13 11:47:25;;;;;;;1.75;0.77;;;;;;;;;;5001419;28;20068;-70
2024/02/13 11:49:50;;;;;;;1.80;0.90;;;;;;;;;;5005002;28;20496;-68
2024/02/13 11:52:16;;;;;;;6.95;1.02;;;;;;;;;;4996551;28;20266;-68
2024/02/13 11:54:43;;;;;;;0.65;0.40;;;;;;;;;;4997317;28;20493;-68
2024/02/13 11:57:09;;;;;;;6.13;0.95;;;;;;;;;;5002332;28;20026;-68
2024/02/13 11:59:35;;;;;;;3.20;0.70;;;;;;;;;;4999328;28;20304;-68
2024/02/13 12:02:00;;;;;;;7.28;1.33;;;;;;;;;;5004346;28;20507;-68
2024/02/13 12:04:26;;;;;;;3.33;1.08;;;;;;;;;;5000840;28;20026;-68
2024/02/13 12:06:52;;;;;;;0.93;0.65;;;;;;;;;;4996445;28;20516;-68
2024/02/13 12:09:17;;;;;;;4.72;0.68;;;;;;;;;;5004548;28;20029;-68
2024/02/13 12:11:45;;;;;;;9.90;0.75;;;;;;;;;;4997877;28;20469;-68
2024/02/13 12:14:13;;;;;;;7.15;1.75;;;;;;;;;;5008421;28;20144;-69
2024/02/13 12:16:38;;;;;;;1.10;0.55;;;;;;;;;;5002928;28;20026;-68
2024/02/13 12:19:06;;;;;;;1.48;0.75;;;;;;;;;;5006058;28;20028;-70
2024/02/13 12:21:32;;;;;;;1.65;0.55;;;;;;;;;;4999862;28;20044;-68
2024/02/13 12:24:01;;;;;;;3.85;0.60;;;;;;;;;;5006676;28;20017;-68
2024/02/13 12:26:28;;;;;;;1.67;0.70;;;;;;;;;;5001530;28;20036;-68
2024/02/13 12:28:57;;;;;;;6.70;0.80;;;;;;;;;;5005577;28;20489;-68
2024/02/13 12:31:23;;;;;;;2.17;0.70;;;;;;;;;;4997332;28;20045;-68
2024/02/13 12:33:48;;;;;;;1.13;0.40;;;;;;;;;;4994062;28;20074;-68
2024/02/13 12:36:22;;;;;;;2.25;0.50;;;;;;;;;;5004831;28;20072;-68
2024/02/13 12:38:47;;;;;;;1.65;0.90;;;;;;;;;;5003038;28;20438;-68
2024/02/13 12:41:13;;;;;;;7.90;0.70;;;;;;;;;;5007011;28;20101;-70
2024/02/13 12:43:41;;;;;;;5.40;0.57;;;;;;;;;;4996989;28;20441;-68
2024/02/13 12:46:06;;;;;;;0.82;0.40;;;;;;;;;;5001818;28;20056;-68
2024/02/13 12:48:35;;;;;;;0.40;0.30;;;;;;;;;;4994808;28;20026;-68
2024/02/13 12:51:02;;;;;;;2.97;1.27;;;;;;;;;;4998730;28;20257;-68
2024/02/13 12:53:28;;;;;;;4.03;0.80;;;;;;;;;;4999152;28;20046;-68
2024/02/13 12:55:53;;;;;;;1.80;0.60;;;;;;;;;;5002581;28;20061;-68
2024/02/13 12:58:21;;;;;;;5.00;0.57;;;;;;;;;;4995625;28;20034;-68
2024/02/13 13:00:47;;;;;;;2.90;0.77;;;;;;;;;;4998668;28;20352;-67
2024/02/13 13:03:14;;;;;;;0.98;0.52;;;;;;;;;;5001928;28;20029;-68
2024/02/13 13:05:41;;;;;;;3.63;0.60;;;;;;;;;;4995041;28;20085;-68
2024/02/13 13:08:09;;;;;;;3.92;0.55;;;;;;;;;;4996201;28;20229;-68
2024/02/13 13:10:34;;;;;;;4.28;0.98;;;;;;;;;;4999651;28;20464;-68
2024/02/13 13:12:59;;;;;;;2.63;0.50;;;;;;;;;;4997591;28;20050;-68
2024/02/13 13:15:26;;;;;;;3.17;0.47;;;;;;;;;;4994516;28;20489;-68
2024/02/13 13:17:52;;;;;;;2.33;0.57;;;;;;;;;;5001242;28;20546;-69
2024/02/13 13:20:18;;;;;;;5.78;1.35;;;;;;;;;;4993780;28;20037;-68
2024/02/13 13:22:47;;;;;;;4.45;0.43;;;;;;;;;;4997490;28;20030;-68
2024/02/13 13:25:13;;;;;;;1.30;0.40;;;;;;;;;;4991724;28;20022;-69
2024/02/13 13:27:39;;;;;;;7.15;0.60;;;;;;;;;;5002139;28;20042;-69
2024/02/13 13:30:04;;;;;;;6.13;1.07;;;;;;;;;;5001855;28;20491;-70
2024/02/13 13:32:30;;;;;;;1.65;0.85;;;;;;;;;;5000465;28;20265;-70
2024/02/13 13:35:00;;;;;;;2.92;0.52;;;;;;;;;;4999368;28;20128;-69
2024/02/13 13:37:27;;;;;;;1.48;0.68;;;;;;;;;;5003548;28;20567;-69
2024/02/13 13:39:52;;;;;;;2.35;0.80;;;;;;;;;;5004870;28;20025;-69
2024/02/13 13:42:19;;;;;;;4.27;0.80;;;;;;;;;;4991797;28;20032;-70
2024/02/13 13:44:44;;;;;;;7.03;1.13;;;;;;;;;;5000154;28;20277;-69
2024/02/13 13:47:10;;;;;;;1.80;0.57;;;;;;;;;;4996143;28;20037;-69
2024/02/13 13:49:35;;;;;;;5.57;1.08;;;;;;;;;;5002713;28;20042;-69
2024/02/13 13:52:01;;;;;;;2.50;1.10;;;;;;;;;;4999430;28;20377;-69
2024/02/13 13:54:26;;;;;;;4.30;1.30;;;;;;;;;;5002338;28;20018;-69
2024/02/13 13:56:51;;;;;;;5.00;0.80;;;;;;;;;;4998493;28;20428;-69
2024/02/13 13:59:16;;;;;;;3.03;0.30;;;;;;;;;;5001237;28;20744;-70
2024/02/13 14:01:42;;;;;;;2.38;0.50;;;;;;;;;;4994195;28;20077;-69
2024/02/13 14:04:09;;;;;;;7.03;1.23;;;;;;;;;;4998305;28;20022;-69
2024/02/13 14:06:34;;;;;;;2.22;0.60;;;;;;;;;;4996501;28;20037;-70
2024/02/13 14:08:59;;;;;;;1.58;0.57;;;;;;;;;;4998613;28;20021;-70
2024/02/13 14:11:25;;;;;;;3.17;0.60;;;;;;;;;;5001659;28;20025;-69
2024/02/13 14:13:52;;;;;;;3.38;0.85;;;;;;;;;;4996511;28;20630;-69
2024/02/13 14:16:18;;;;;;;9.98;1.20;;;;;;;;;;4994555;28;20093;-69
2024/02/13 14:18:43;;;;;;;5.63;1.00;;;;;;;;;;5003036;28;20018;-69
2024/02/13 14:21:08;;;;;;;7.13;1.00;;;;;;;;;;4999554;28;20041;-69
2024/02/13 14:23:34;;;;;;;3.63;1.10;;;;;;;;;;5000128;28;20756;-69
2024/02/13 14:25:59;;;;;;;3.88;0.63;;;;;;;;;;4999046;28;20292;-69
2024/02/13 14:28:24;;;;;;;3.03;0.87;;;;;;;;;;5003079;28;20408;-70
2024/02/13 14:30:50;;;;;;;4.97;1.17;;;;;;;;;;5000153;28;20261;-70